Country
Station

 

Weather  for  Monroe, Monroe Regional Airport  -  United States    United States

  
8 °C (46 °F)
    
 
 

Current METAR for Monroe, Monroe Regional Airport is :

KMLU 221353Z 03011KT 10SM CLR 08/00 A3029 RMK AO2 SLP256 T00830000

 

This is a report for Monroe, Monroe Regional Airport - United States.
 
The report was made 50 minutes ago, at 13:53 UTC .
The wind was blowing at a speed of 5.7 meters per second (12.7 miles per hour) from north/northeast (030°).
 
The temperature was 8 °C (46 °F)
The atmospheric pressure was 1026 hPa (30.29 inHg).
The sky was clear.
 
The overall visibility was 16.1 kilometers (10.0 miles).
 

 
 
 
 

Country :   A   B   C   D   E   F   G   H   I   J   K   L   M   N   O   P   Q   R   S   T   U   V   W   Y   Z

 

Site Info  |  Disclaimer  |  Credits  |  Privacy
Contact us  |  Add to favorites
© 2013-2017 METARs - All rights reserved